Time;durP1;ratioP1;P1;durP2;ratioP2;P2;SDS_P1;SDS_P2;PMS_P1;PMS_P2;Temp;Humidity;BMP_temperature;BMP_pressure;BME280_temperature;BME280_humidity;BME280_pressure;Samples;Min_cycle;Max_cycle;Signal;HPM_P1;HPM_P2
2024/01/17 00:01:23;;;;;;;0.97;0.97;;;-3.00;99.90;;;;;;5080510;28;20929;-80
2024/01/17 00:03:50;;;;;;;1.17;0.53;;;-3.00;99.90;;;;;;5084919;28;20445;-80
2024/01/17 00:06:16;;;;;;;0.70;0.70;;;-3.00;99.90;;;;;;5081754;28;20522;-80
2024/01/17 00:08:44;;;;;;;1.87;1.10;;;-2.90;99.90;;;;;;5080052;28;20491;-80
2024/01/17 00:11:11;;;;;;;1.80;1.70;;;-2.90;99.90;;;;;;5080747;28;20442;-80
2024/01/17 00:13:38;;;;;;;0.77;0.77;;;-2.90;99.90;;;;;;5080691;28;20488;-80
2024/01/17 00:16:05;;;;;;;1.53;1.00;;;-2.90;99.90;;;;;;5081347;28;20415;-81
2024/01/17 00:18:34;;;;;;;1.60;1.50;;;-2.90;99.90;;;;;;5084127;28;20471;-81
2024/01/17 00:21:00;;;;;;;0.83;0.83;;;-2.90;99.90;;;;;;5083851;28;20932;-81
2024/01/17 00:23:27;;;;;;;1.13;0.50;;;-2.90;99.90;;;;;;5083832;28;20440;-81
2024/01/17 00:25:54;;;;;;;0.83;0.83;;;-2.90;99.90;;;;;;5083731;28;20451;-81
2024/01/17 00:28:20;;;;;;;2.13;2.03;;;-2.90;99.90;;;;;;5083902;28;20468;-81
2024/01/17 00:30:47;;;;;;;4.20;2.13;;;-2.90;99.90;;;;;;5083889;28;20456;-81
2024/01/17 00:33:14;;;;;;;0.60;0.60;;;-2.90;99.90;;;;;;5082983;28;20477;-81
2024/01/17 00:35:42;;;;;;;2.00;1.90;;;-2.90;99.90;;;;;;5083591;28;20464;-80
2024/01/17 00:38:09;;;;;;;1.63;1.53;;;-2.90;99.90;;;;;;5083156;28;20439;-81
2024/01/17 00:40:36;;;;;;;4.00;1.27;;;-2.90;99.90;;;;;;5082129;28;20415;-80
2024/01/17 00:43:03;;;;;;;4.13;1.17;;;-2.80;99.90;;;;;;5082321;28;20459;-80
2024/01/17 00:45:30;;;;;;;3.97;1.33;;;-2.90;99.90;;;;;;5082015;28;20452;-80
2024/01/17 00:47:56;;;;;;;10.00;1.27;;;-2.80;99.90;;;;;;5082351;28;20441;-81
2024/01/17 00:50:23;;;;;;;2.00;1.47;;;-2.80;99.90;;;;;;5081853;28;20419;-81
2024/01/17 00:52:51;;;;;;;1.67;0.63;;;-2.80;99.90;;;;;;5081623;28;20835;-80
2024/01/17 00:55:18;;;;;;;0.40;0.40;;;-2.70;99.90;;;;;;5082235;28;20449;-80
2024/01/17 00:57:45;;;;;;;3.50;1.43;;;-2.60;99.90;;;;;;5081090;28;20445;-80
2024/01/17 01:00:12;;;;;;;1.03;1.03;;;-2.60;99.90;;;;;;5081016;28;20468;-80
2024/01/17 01:02:39;;;;;;;0.70;0.60;;;-2.50;99.90;;;;;;5080629;28;20441;-80
2024/01/17 01:05:06;;;;;;;0.60;0.37;;;-2.60;99.90;;;;;;5080334;28;20441;-80
2024/01/17 01:07:33;;;;;;;0.50;0.50;;;-2.50;99.90;;;;;;5079186;28;20556;-80
2024/01/17 01:10:01;;;;;;;4.07;1.70;;;-2.40;99.90;;;;;;5079881;28;20523;-80
2024/01/17 01:12:28;;;;;;;1.23;1.07;;;-2.40;99.90;;;;;;5079808;28;20449;-81
2024/01/17 01:14:54;;;;;;;1.37;0.93;;;-2.30;99.90;;;;;;5080052;28;20901;-81
2024/01/17 01:17:21;;;;;;;0.60;0.60;;;-2.20;99.90;;;;;;5080134;28;20438;-80
2024/01/17 01:19:48;;;;;;;1.60;0.60;;;-2.20;99.90;;;;;;5080148;28;20472;-80
2024/01/17 01:22:15;;;;;;;2.10;0.87;;;-2.10;99.90;;;;;;5079561;28;20422;-80
2024/01/17 01:24:41;;;;;;;4.30;0.90;;;-2.10;99.90;;;;;;5079876;28;20445;-80
2024/01/17 01:27:10;;;;;;;2.80;1.77;;;-2.10;99.90;;;;;;5079249;28;20444;-80
2024/01/17 01:29:36;;;;;;;2.70;1.53;;;-2.20;99.90;;;;;;5079714;28;20468;-81
2024/01/17 01:32:04;;;;;;;1.10;1.10;;;-2.20;99.90;;;;;;5080276;28;20441;-81
2024/01/17 01:34:30;;;;;;;3.73;2.20;;;-2.20;99.90;;;;;;5078796;28;20484;-81
2024/01/17 01:36:57;;;;;;;1.63;1.53;;;-2.20;99.90;;;;;;5078529;28;20433;-80
2024/01/17 01:39:24;;;;;;;2.40;0.90;;;-2.20;99.90;;;;;;5078515;28;20469;-80
2024/01/17 01:41:51;;;;;;;0.80;0.80;;;-2.20;99.90;;;;;;5078511;28;20540;-80
2024/01/17 01:44:19;;;;;;;5.00;2.23;;;-2.20;99.90;;;;;;5078782;28;20423;-80
2024/01/17 01:46:47;;;;;;;1.43;1.43;;;-2.10;99.90;;;;;;5078589;28;20415;-80
2024/01/17 01:49:16;;;;;;;4.63;1.40;;;-2.00;99.90;;;;;;5078312;28;20443;-80
2024/01/17 01:51:45;;;;;;;0.70;0.70;;;-2.00;99.90;;;;;;5078627;28;20423;-81
2024/01/17 01:54:14;;;;;;;0.50;0.50;;;-1.90;99.90;;;;;;5078276;28;20828;-80
2024/01/17 01:56:42;;;;;;;2.00;1.33;;;-1.90;99.90;;;;;;5077798;28;20453;-80
2024/01/17 01:59:10;;;;;;;0.40;0.40;;;-1.80;99.90;;;;;;5077982;28;20464;-80
2024/01/17 02:01:37;;;;;;;3.03;1.47;;;-1.70;99.90;;;;;;5077792;28;20456;-81
2024/01/17 02:04:05;;;;;;;2.30;0.70;;;-1.70;99.90;;;;;;5077510;28;20449;-80
2024/01/17 02:06:34;;;;;;;2.87;1.10;;;-1.70;99.90;;;;;;5077637;28;20456;-81
2024/01/17 02:09:02;;;;;;;1.60;1.23;;;-1.60;99.90;;;;;;5077713;28;20461;-80
2024/01/17 02:11:30;;;;;;;1.97;1.07;;;-1.50;99.90;;;;;;5077102;28;20436;-81
2024/01/17 02:13:57;;;;;;;1.23;0.80;;;-1.50;99.90;;;;;;5077149;28;20484;-81
2024/01/17 02:16:24;;;;;;;1.90;1.20;;;-1.60;99.90;;;;;;5076986;28;20961;-80
2024/01/17 02:18:53;;;;;;;2.37;1.10;;;-1.60;99.90;;;;;;5077646;28;20483;-81
2024/01/17 02:21:20;;;;;;;1.07;0.93;;;-1.60;99.90;;;;;;5082784;28;20452;-81
2024/01/17 02:23:50;;;;;;;1.20;0.87;;;-1.50;99.90;;;;;;5081102;28;20521;-81
2024/01/17 02:26:17;;;;;;;1.70;1.60;;;-1.50;99.90;;;;;;5080671;28;20417;-81
2024/01/17 02:28:44;;;;;;;0.73;0.60;;;-1.40;99.90;;;;;;5080466;28;20465;-81
2024/01/17 02:31:11;;;;;;;1.37;1.27;;;-1.40;99.90;;;;;;5080016;28;20432;-81
2024/01/17 02:33:38;;;;;;;2.50;0.73;;;-1.30;99.90;;;;;;5079259;28;20853;-81
2024/01/17 02:36:05;;;;;;;3.83;2.07;;;-1.30;99.90;;;;;;5079441;28;20516;-81
2024/01/17 02:38:32;;;;;;;0.67;0.67;;;-1.30;99.90;;;;;;5078967;28;20468;-81
2024/01/17 02:41:00;;;;;;;0.97;0.97;;;-1.20;99.90;;;;;;5078077;28;20464;-81
2024/01/17 02:43:29;;;;;;;5.07;1.53;;;-1.20;99.90;;;;;;5078339;28;20494;-81
2024/01/17 02:45:56;;;;;;;4.53;1.33;;;-1.20;99.90;;;;;;5098172;28;20439;-80
2024/01/17 02:48:23;;;;;;;1.53;0.70;;;-1.10;99.90;;;;;;5098650;28;20461;-80
2024/01/17 02:50:50;;;;;;;2.63;1.27;;;-1.10;99.90;;;;;;5082154;28;20494;-81
2024/01/17 02:53:17;;;;;;;0.90;0.70;;;-1.00;99.90;;;;;;5077723;28;20469;-80
2024/01/17 02:55:43;;;;;;;1.50;0.90;;;-1.00;99.90;;;;;;5077787;28;20449;-80
2024/01/17 02:58:12;;;;;;;2.43;2.33;;;-1.00;99.90;;;;;;5078303;28;20814;-80
2024/01/17 03:00:42;;;;;;;0.37;0.37;;;-1.00;99.90;;;;;;5077520;28;20453;-80
2024/01/17 03:03:09;;;;;;;1.10;1.10;;;-1.10;99.90;;;;;;5077825;28;20433;-80
2024/01/17 03:05:37;;;;;;;1.43;1.33;;;-1.10;99.90;;;;;;5078218;28;20441;-80
2024/01/17 03:08:04;;;;;;;0.53;0.53;;;-1.10;99.90;;;;;;5076858;28;20480;-80
2024/01/17 03:10:31;;;;;;;3.07;0.80;;;-1.00;99.90;;;;;;5077570;28;20469;-80
2024/01/17 03:12:57;;;;;;;1.37;0.60;;;-1.10;99.90;;;;;;5076947;28;20460;-80
2024/01/17 03:15:25;;;;;;;0.63;0.63;;;-1.00;99.90;;;;;;5076682;28;20444;-80
2024/01/17 03:17:52;;;;;;;0.97;0.97;;;0.40;99.90;;;;;;5076511;28;20448;-80
2024/01/17 03:20:19;;;;;;;2.13;1.40;;;-1.00;99.90;;;;;;5075898;28;20451;-80
2024/01/17 03:22:46;;;;;;;2.00;1.13;;;-1.00;99.90;;;;;;5076596;28;20437;-80
2024/01/17 03:25:12;;;;;;;0.70;0.70;;;-1.00;99.90;;;;;;5076097;28;20441;-80
2024/01/17 03:27:39;;;;;;;0.90;0.90;;;0.50;99.90;;;;;;5075967;28;20451;-80
2024/01/17 03:30:07;;;;;;;0.60;0.57;;;-1.00;99.90;;;;;;5075239;28;20456;-80
2024/01/17 03:32:35;;;;;;;0.93;0.93;;;-1.00;99.90;;;;;;5075932;28;20798;-80
2024/01/17 03:35:02;;;;;;;1.37;1.27;;;-0.90;99.90;;;;;;5075709;28;21072;-80
2024/01/17 03:37:29;;;;;;;1.73;0.70;;;-0.90;99.90;;;;;;5075997;28;20480;-80
2024/01/17 03:39:56;;;;;;;0.87;0.87;;;-1.00;99.90;;;;;;5075241;28;20468;-80
2024/01/17 03:42:22;;;;;;;3.40;0.73;;;-1.00;99.90;;;;;;5075986;28;20809;-80
2024/01/17 03:44:51;;;;;;;1.60;1.50;;;-0.90;99.90;;;;;;5075888;28;20448;-80
2024/01/17 03:47:18;;;;;;;1.77;1.00;;;-0.90;99.90;;;;;;5075464;28;20950;-80
2024/01/17 03:49:46;;;;;;;6.20;1.47;;;-0.80;99.90;;;;;;5075299;28;20464;-81
2024/01/17 03:52:13;;;;;;;1.63;1.53;;;-0.80;99.90;;;;;;5075693;28;20448;-80
2024/01/17 03:54:40;;;;;;;1.13;1.13;;;-0.70;99.90;;;;;;5076730;28;20476;-80
2024/01/17 03:57:08;;;;;;;4.53;1.60;;;-0.70;99.90;;;;;;5078474;28;20445;-80
2024/01/17 03:59:35;;;;;;;0.90;0.60;;;-0.70;99.90;;;;;;5077366;28;20446;-81
2024/01/17 04:02:02;;;;;;;0.77;0.77;;;-0.70;99.90;;;;;;5076086;28;20437;-80
2024/01/17 04:04:28;;;;;;;8.43;3.30;;;-0.70;99.90;;;;;;5076187;28;20445;-80
2024/01/17 04:06:56;;;;;;;0.60;0.60;;;-0.60;99.90;;;;;;5075811;28;20471;-80
2024/01/17 04:09:24;;;;;;;1.70;0.73;;;-0.60;99.90;;;;;;5075902;28;20818;-81
2024/01/17 04:11:52;;;;;;;1.90;1.03;;;-0.50;99.90;;;;;;5075732;28;20540;-81
2024/01/17 04:14:18;;;;;;;0.77;0.77;;;-0.60;99.90;;;;;;5076068;28;20886;-80
2024/01/17 04:16:45;;;;;;;4.30;0.97;;;-0.50;99.90;;;;;;5076496;28;20437;-80
2024/01/17 04:19:12;;;;;;;3.90;0.77;;;-0.50;99.90;;;;;;5076811;28;20460;-81
2024/01/17 04:21:38;;;;;;;3.80;1.20;;;-0.50;99.90;;;;;;5087601;28;20800;-80
2024/01/17 04:24:07;;;;;;;0.60;0.60;;;-0.40;99.90;;;;;;5086358;28;20447;-80
2024/01/17 04:26:33;;;;;;;3.80;1.10;;;-0.40;99.90;;;;;;5078923;28;20437;-80
2024/01/17 04:29:00;;;;;;;1.60;0.97;;;-0.40;99.90;;;;;;5087956;28;20469;-81
2024/01/17 04:31:29;;;;;;;0.90;0.90;;;-0.30;99.90;;;;;;5088061;28;20441;-80
2024/01/17 04:33:57;;;;;;;0.90;0.90;;;-0.30;99.90;;;;;;5089396;28;20485;-80
2024/01/17 04:36:27;;;;;;;0.80;0.77;;;-0.30;99.90;;;;;;5089074;28;20470;-80
2024/01/17 04:38:54;;;;;;;1.73;0.57;;;-0.30;99.90;;;;;;5090330;28;20461;-80
2024/01/17 04:41:22;;;;;;;1.53;0.73;;;-0.30;99.90;;;;;;5086211;28;20902;-80
2024/01/17 04:43:49;;;;;;;2.23;2.07;;;-0.30;99.90;;;;;;5084410;28;20433;-80
2024/01/17 04:46:17;;;;;;;5.93;1.93;;;-0.30;99.90;;;;;;5084056;28;20903;-80
2024/01/17 04:48:44;;;;;;;1.90;1.27;;;-0.20;99.90;;;;;;5082294;28;20461;-80
2024/01/17 04:51:12;;;;;;;2.40;0.57;;;-0.20;99.90;;;;;;5083195;28;20448;-80
2024/01/17 04:53:41;;;;;;;1.60;0.87;;;-0.20;99.90;;;;;;5083936;28;20492;-80
2024/01/17 04:56:09;;;;;;;4.43;2.70;;;-0.10;99.90;;;;;;5080143;28;20514;-80
2024/01/17 04:58:37;;;;;;;5.10;1.77;;;-0.10;99.90;;;;;;5079956;28;20528;-80
2024/01/17 05:01:04;;;;;;;1.33;1.00;;;-0.10;99.90;;;;;;5079256;28;20475;-80
2024/01/17 05:03:31;;;;;;;0.80;0.80;;;-0.20;99.90;;;;;;5079466;28;20472;-80
2024/01/17 05:05:58;;;;;;;1.07;1.03;;;-0.20;99.90;;;;;;5079852;28;20453;-80
2024/01/17 05:08:24;;;;;;;2.60;1.73;;;-0.20;99.90;;;;;;5079321;28;20504;-80
2024/01/17 05:10:51;;;;;;;6.20;1.47;;;-0.10;99.90;;;;;;5079402;28;20918;-80
2024/01/17 05:13:18;;;;;;;1.13;1.03;;;-0.10;99.90;;;;;;5078968;28;20429;-80
2024/01/17 05:15:46;;;;;;;0.80;0.80;;;-0.10;99.90;;;;;;5079243;28;20829;-80
2024/01/17 05:18:13;;;;;;;1.40;0.87;;;-0.10;99.90;;;;;;5079109;28;20460;-80
2024/01/17 05:20:40;;;;;;;1.37;1.27;;;-0.10;99.90;;;;;;5079011;28;20441;-80
2024/01/17 05:23:07;;;;;;;0.70;0.50;;;0.00;99.90;;;;;;5078773;28;20441;-80
2024/01/17 05:25:34;;;;;;;1.07;1.07;;;0.00;99.90;;;;;;5079582;28;20463;-80
2024/01/17 05:28:01;;;;;;;1.67;1.20;;;0.10;99.90;;;;;;5077835;28;20976;-80
2024/01/17 05:30:27;;;;;;;2.50;1.40;;;0.10;99.90;;;;;;5077938;28;20452;-80
2024/01/17 05:32:56;;;;;;;0.40;0.40;;;0.10;99.90;;;;;;5077784;28;20451;-80
2024/01/17 05:35:23;;;;;;;10.67;1.87;;;0.10;99.90;;;;;;5077766;28;20511;-80
2024/01/17 05:37:50;;;;;;;3.23;1.43;;;0.20;99.90;;;;;;5077954;28;20451;-80
2024/01/17 05:40:17;;;;;;;1.60;1.50;;;0.20;99.90;;;;;;5077848;28;20452;-80
2024/01/17 05:42:45;;;;;;;0.90;0.90;;;0.20;99.90;;;;;;5077413;28;20964;-80
2024/01/17 05:45:12;;;;;;;1.47;1.37;;;0.20;99.90;;;;;;5077821;28;20436;-80
2024/01/17 05:47:39;;;;;;;1.37;1.00;;;0.20;99.90;;;;;;5077736;28;20445;-80
2024/01/17 05:50:09;;;;;;;2.10;1.47;;;0.30;99.90;;;;;;5077334;28;20471;-80
2024/01/17 05:52:38;;;;;;;3.23;1.43;;;0.30;99.90;;;;;;5077805;28;20471;-80
2024/01/17 05:55:05;;;;;;;1.50;1.03;;;0.30;99.90;;;;;;5077521;28;20481;-80
2024/01/17 05:57:32;;;;;;;1.40;1.30;;;0.30;99.90;;;;;;5077240;28;20445;-80
2024/01/17 05:59:59;;;;;;;1.47;1.33;;;0.30;99.90;;;;;;5077728;28;20460;-80
2024/01/17 06:02:26;;;;;;;5.83;1.67;;;0.30;99.90;;;;;;5077607;28;20823;-80
2024/01/17 06:04:52;;;;;;;3.77;1.83;;;0.20;99.90;;;;;;5077265;28;20445;-80
2024/01/17 06:07:20;;;;;;;2.50;1.47;;;0.30;99.90;;;;;;5077357;28;20484;-80
2024/01/17 06:09:47;;;;;;;0.73;0.73;;;0.30;99.90;;;;;;5077469;28;20521;-80
2024/01/17 06:12:14;;;;;;;3.07;1.70;;;0.30;99.90;;;;;;5079011;28;20444;-80
2024/01/17 06:14:40;;;;;;;2.73;1.00;;;0.30;99.90;;;;;;5078002;28;20495;-80
2024/01/17 06:17:08;;;;;;;9.80;1.43;;;0.30;99.90;;;;;;5077852;28;20445;-80
2024/01/17 06:19:34;;;;;;;2.50;0.73;;;0.30;99.90;;;;;;5077686;28;20526;-80
2024/01/17 06:22:01;;;;;;;0.70;0.60;;;0.30;99.90;;;;;;5079321;28;20453;-80
2024/01/17 06:24:29;;;;;;;6.73;1.93;;;0.40;99.90;;;;;;5078037;28;20441;-80
2024/01/17 06:26:56;;;;;;;2.63;1.60;;;0.40;99.90;;;;;;5078216;28;20445;-80
2024/01/17 06:29:25;;;;;;;2.77;2.20;;;0.30;99.90;;;;;;5078140;28;20547;-80
2024/01/17 06:31:52;;;;;;;4.73;2.87;;;0.30;99.90;;;;;;5078141;28;20444;-80
2024/01/17 06:34:19;;;;;;;1.40;1.30;;;0.30;99.90;;;;;;5078045;28;20488;-80
2024/01/17 06:36:45;;;;;;;1.47;1.37;;;0.30;99.90;;;;;;5077829;28;20441;-80
2024/01/17 06:39:12;;;;;;;2.20;1.17;;;0.40;99.90;;;;;;5077611;28;20461;-80
2024/01/17 06:41:40;;;;;;;3.50;1.90;;;0.40;99.90;;;;;;5077344;28;20451;-80
2024/01/17 06:44:09;;;;;;;2.83;1.63;;;0.40;99.90;;;;;;5076407;28;20479;-80
2024/01/17 06:46:38;;;;;;;3.70;1.50;;;0.40;99.90;;;;;;5075855;28;20484;-80
2024/01/17 06:49:05;;;;;;;2.73;1.20;;;0.40;99.90;;;;;;5075349;28;20523;-80
2024/01/17 06:51:31;;;;;;;4.03;2.73;;;0.40;99.90;;;;;;5075279;28;20814;-80
2024/01/17 06:53:58;;;;;;;3.37;2.43;;;0.40;99.90;;;;;;5076370;28;20448;-80
2024/01/17 06:56:25;;;;;;;3.37;1.23;;;0.50;99.90;;;;;;5077419;28;20799;-80
2024/01/17 06:58:53;;;;;;;1.17;0.97;;;0.50;99.90;;;;;;5076553;28;20460;-80
2024/01/17 07:01:20;;;;;;;2.20;1.10;;;0.50;99.90;;;;;;5076513;28;20443;-80
2024/01/17 07:03:47;;;;;;;2.10;1.53;;;0.60;99.90;;;;;;5076244;28;20441;-80
2024/01/17 07:06:14;;;;;;;1.10;1.00;;;0.50;99.90;;;;;;5075187;28;20445;-80
2024/01/17 07:08:41;;;;;;;2.80;1.73;;;0.60;99.90;;;;;;5076008;28;20481;-80
2024/01/17 07:11:09;;;;;;;2.30;1.30;;;0.70;99.90;;;;;;5076868;28;20445;-80
2024/01/17 07:13:37;;;;;;;0.70;0.70;;;0.70;99.90;;;;;;5075998;28;20441;-80
2024/01/17 07:16:06;;;;;;;1.13;0.80;;;0.70;99.90;;;;;;5075726;28;20480;-80
2024/01/17 07:18:33;;;;;;;1.40;1.30;;;0.70;99.90;;;;;;5076091;28;20461;-80
2024/01/17 07:21:00;;;;;;;1.50;1.20;;;0.80;99.90;;;;;;5075900;28;20452;-80
2024/01/17 07:23:26;;;;;;;0.87;0.87;;;0.80;99.90;;;;;;5075833;28;20507;-80
2024/01/17 07:25:53;;;;;;;0.70;0.70;;;0.90;99.90;;;;;;5075605;28;20444;-80
2024/01/17 07:28:20;;;;;;;1.40;1.23;;;0.90;99.90;;;;;;5075104;28;20452;-80
2024/01/17 07:30:47;;;;;;;1.00;0.63;;;0.90;99.90;;;;;;5075920;28;20441;-80
2024/01/17 07:33:15;;;;;;;0.60;0.60;;;0.90;99.90;;;;;;5075892;28;20453;-80
2024/01/17 07:35:41;;;;;;;1.53;1.17;;;1.00;99.90;;;;;;5075072;28;20482;-80
2024/01/17 07:38:08;;;;;;;2.57;1.23;;;1.00;99.90;;;;;;5075444;28;20448;-80
2024/01/17 07:40:35;;;;;;;1.90;1.67;;;1.00;99.90;;;;;;5075403;28;20441;-80
2024/01/17 07:43:02;;;;;;;1.73;1.63;;;1.00;99.90;;;;;;5075437;28;20452;-80
2024/01/17 07:45:28;;;;;;;1.13;0.60;;;1.00;99.90;;;;;;5075369;28;20441;-80
2024/01/17 07:47:55;;;;;;;3.40;2.00;;;1.00;99.90;;;;;;5075144;28;20445;-80
2024/01/17 07:50:24;;;;;;;1.37;0.80;;;1.00;99.90;;;;;;5075637;28;20449;-80
2024/01/17 07:52:50;;;;;;;1.33;0.70;;;1.10;99.90;;;;;;5075210;28;20444;-80
2024/01/17 07:55:17;;;;;;;3.40;1.20;;;1.10;99.90;;;;;;5074574;28;20480;-80
2024/01/17 07:57:44;;;;;;;3.77;1.40;;;1.10;99.90;;;;;;5075029;28;20452;-80
2024/01/17 08:00:12;;;;;;;0.90;0.43;;;1.10;99.90;;;;;;5074212;28;20460;-80
2024/01/17 08:02:39;;;;;;;6.20;3.13;;;1.10;99.90;;;;;;5074994;28;20934;-81
2024/01/17 08:05:06;;;;;;;1.57;1.47;;;1.10;99.90;;;;;;5074802;28;20824;-80
2024/01/17 08:07:35;;;;;;;3.90;1.00;;;1.10;99.90;;;;;;5074551;28;20480;-83
2024/01/17 08:10:01;;;;;;;1.80;1.37;;;1.20;99.90;;;;;;5074177;28;20468;-82
2024/01/17 08:12:28;;;;;;;0.83;0.60;;;1.20;99.90;;;;;;5074650;28;20444;-81
2024/01/17 08:14:55;;;;;;;0.83;0.83;;;1.20;99.90;;;;;;5076557;28;20469;-81
2024/01/17 08:17:21;;;;;;;0.60;0.60;;;1.30;99.90;;;;;;5080083;28;20441;-81
2024/01/17 08:19:49;;;;;;;0.90;0.90;;;1.30;99.90;;;;;;5080201;28;21030;-81
2024/01/17 08:22:16;;;;;;;3.03;1.07;;;1.30;99.90;;;;;;5080194;28;20445;-81
2024/01/17 08:24:45;;;;;;;2.90;1.20;;;1.30;99.90;;;;;;5081544;28;20444;-81
2024/01/17 08:27:12;;;;;;;2.07;0.60;;;1.30;99.90;;;;;;5081346;28;20780;-81
2024/01/17 08:29:38;;;;;;;0.60;0.50;;;1.30;99.90;;;;;;5079844;28;20465;-81
2024/01/17 08:32:06;;;;;;;1.90;0.80;;;1.30;99.90;;;;;;5079831;28;20981;-81
2024/01/17 08:34:33;;;;;;;0.60;0.57;;;1.30;99.90;;;;;;5078830;28;20949;-81
2024/01/17 08:37:00;;;;;;;0.40;0.30;;;1.30;99.90;;;;;;5079813;28;20473;-81
2024/01/17 08:39:27;;;;;;;1.93;0.87;;;1.30;99.90;;;;;;5078646;28;20476;-81
2024/01/17 08:41:55;;;;;;;0.60;0.37;;;1.30;99.90;;;;;;5078964;28;20545;-81
2024/01/17 08:44:23;;;;;;;2.10;0.60;;;1.40;99.90;;;;;;5079080;28;20445;-81
2024/01/17 08:46:50;;;;;;;2.10;0.87;;;1.40;99.90;;;;;;5079103;28;20498;-81
2024/01/17 08:49:17;;;;;;;2.50;1.30;;;1.50;99.90;;;;;;5078622;28;20468;-81
2024/01/17 08:51:44;;;;;;;0.63;0.63;;;1.50;99.90;;;;;;5078712;28;20444;-81
2024/01/17 08:54:11;;;;;;;0.50;0.50;;;1.60;99.90;;;;;;5078432;28;20444;-80
2024/01/17 08:56:43;;;;;;;0.80;0.80;;;1.60;99.90;;;;;;5078238;28;20993;-80
2024/01/17 08:59:13;;;;;;;0.40;0.40;;;1.60;99.90;;;;;;5078482;28;20461;-80
2024/01/17 09:01:40;;;;;;;1.63;1.13;;;3.10;99.90;;;;;;5078142;28;20800;-80
2024/01/17 09:04:07;;;;;;;1.30;1.20;;;1.80;99.90;;;;;;5078209;28;20452;-80
2024/01/17 09:06:33;;;;;;;2.10;1.20;;;1.80;99.90;;;;;;5078085;28;20445;-80
2024/01/17 09:09:00;;;;;;;1.13;1.03;;;1.80;99.90;;;;;;5078044;28;20472;-81
2024/01/17 09:11:27;;;;;;;1.07;0.97;;;1.90;99.90;;;;;;5078568;28;20839;-81
2024/01/17 09:13:54;;;;;;;1.13;0.50;;;1.90;99.90;;;;;;5077342;28;20449;-81
2024/01/17 09:16:22;;;;;;;6.47;1.27;;;1.90;99.90;;;;;;5077724;28;20493;-81
2024/01/17 09:18:48;;;;;;;8.03;2.00;;;1.90;99.90;;;;;;5077626;28;20476;-80
2024/01/17 09:21:15;;;;;;;1.07;1.00;;;2.00;99.90;;;;;;5078442;28;20445;-81
2024/01/17 09:23:42;;;;;;;1.70;0.43;;;2.00;99.90;;;;;;5078097;28;20452;-81
2024/01/17 09:26:09;;;;;;;2.07;1.10;;;2.00;99.90;;;;;;5077292;28;20441;-80
2024/01/17 09:28:35;;;;;;;1.17;0.87;;;2.10;99.90;;;;;;5076765;28;20472;-80
2024/01/17 09:31:02;;;;;;;3.27;1.10;;;2.10;99.90;;;;;;5077871;28;20807;-80
2024/01/17 09:33:30;;;;;;;1.50;1.30;;;2.20;99.90;;;;;;5078332;28;20433;-80
2024/01/17 09:35:57;;;;;;;1.63;0.97;;;2.20;99.90;;;;;;5077698;28;21020;-80
2024/01/17 09:38:24;;;;;;;2.30;0.97;;;2.30;99.90;;;;;;5077510;28;20492;-80
2024/01/17 09:40:51;;;;;;;11.63;2.10;;;2.30;99.90;;;;;;5077793;28;20456;-80
2024/01/17 09:43:18;;;;;;;4.63;1.50;;;2.30;99.90;;;;;;5077728;28;20862;-80
2024/01/17 09:45:45;;;;;;;1.57;1.03;;;2.40;99.90;;;;;;5077291;28;20441;-80
2024/01/17 09:48:15;;;;;;;2.00;1.23;;;2.40;99.90;;;;;;5077410;28;20448;-80
2024/01/17 09:50:44;;;;;;;4.97;3.00;;;2.50;99.90;;;;;;5077271;28;20794;-80
2024/01/17 09:53:13;;;;;;;2.50;1.47;;;2.50;99.90;;;;;;5077323;28;20459;-80
2024/01/17 09:55:41;;;;;;;4.67;2.10;;;2.50;99.90;;;;;;5077199;28;20480;-80
2024/01/17 09:58:12;;;;;;;1.53;1.10;;;2.60;99.90;;;;;;5076760;28;20449;-80
2024/01/17 10:00:43;;;;;;;5.10;1.90;;;2.60;99.90;;;;;;5076710;28;20436;-80
2024/01/17 10:03:14;;;;;;;6.93;1.67;;;2.60;99.90;;;;;;5076808;28;20521;-80
2024/01/17 10:05:43;;;;;;;1.40;0.77;;;2.60;99.90;;;;;;5076523;28;20430;-80
2024/01/17 10:08:09;;;;;;;4.20;1.07;;;2.60;99.90;;;;;;5075577;28;20860;-80
2024/01/17 10:10:36;;;;;;;2.57;1.10;;;2.60;99.90;;;;;;5076801;28;20820;-80
2024/01/17 10:13:03;;;;;;;0.53;0.53;;;2.60;99.90;;;;;;5077330;28;20456;-80
2024/01/17 10:15:32;;;;;;;0.93;0.60;;;2.70;99.90;;;;;;5077042;28;20483;-80
2024/01/17 10:17:58;;;;;;;1.67;1.57;;;2.70;99.90;;;;;;5077093;28;20456;-80
2024/01/17 10:20:27;;;;;;;2.80;1.57;;;2.70;99.90;;;;;;5076949;28;20452;-80
2024/01/17 10:22:55;;;;;;;0.50;0.50;;;2.80;99.90;;;;;;5076767;28;21018;-80
2024/01/17 10:25:23;;;;;;;3.57;1.00;;;2.80;99.90;;;;;;5076920;28;20440;-80
2024/01/17 10:27:50;;;;;;;4.00;1.80;;;2.80;99.90;;;;;;5076435;28;20455;-80
2024/01/17 10:30:19;;;;;;;1.00;0.90;;;2.80;99.90;;;;;;5076761;28;20460;-80
2024/01/17 10:32:46;;;;;;;6.23;1.10;;;2.90;99.90;;;;;;5075835;28;20464;-80
2024/01/17 10:35:14;;;;;;;1.47;0.50;;;2.90;99.90;;;;;;5076170;28;20452;-82
2024/01/17 10:37:41;;;;;;;10.23;1.73;;;2.80;99.90;;;;;;5076348;28;20453;-82
2024/01/17 10:40:11;;;;;;;3.80;1.00;;;2.80;99.90;;;;;;5077246;28;20490;-82
2024/01/17 10:42:40;;;;;;;0.53;0.53;;;2.70;99.90;;;;;;5079425;28;20449;-83
2024/01/17 10:45:08;;;;;;;3.33;1.27;;;2.70;99.90;;;;;;5079636;28;20540;-84
2024/01/17 10:47:35;;;;;;;1.30;0.97;;;2.70;99.90;;;;;;5078627;28;20444;-83
2024/01/17 10:50:02;;;;;;;0.60;0.60;;;2.70;99.90;;;;;;5079209;28;20464;-82
2024/01/17 10:52:36;;;;;;;0.60;0.60;;;2.80;99.90;;;;;;5078858;28;20449;-82
2024/01/17 10:55:06;;;;;;;0.70;0.60;;;2.80;99.90;;;;;;5078562;28;20441;-82
2024/01/17 10:57:40;;;;;;;0.90;0.90;;;2.90;99.90;;;;;;5079189;28;20465;-82
2024/01/17 11:00:15;;;;;;;0.97;0.60;;;2.90;99.90;;;;;;5079331;28;20453;-82
2024/01/17 11:02:43;;;;;;;0.80;0.80;;;2.90;99.90;;;;;;5078422;28;20432;-83
2024/01/17 11:05:11;;;;;;;0.73;0.70;;;3.00;99.90;;;;;;5078724;28;20456;-83
2024/01/17 11:07:40;;;;;;;1.50;0.53;;;2.90;99.90;;;;;;5078444;28;20997;-83
2024/01/17 11:10:09;;;;;;;0.37;0.37;;;2.90;99.90;;;;;;5078008;28;20468;-83
2024/01/17 11:12:38;;;;;;;1.10;0.87;;;3.00;99.90;;;;;;5078554;28;20449;-83
2024/01/17 11:15:06;;;;;;;0.30;0.30;;;3.00;99.90;;;;;;5077967;28;20441;-83
2024/01/17 11:17:35;;;;;;;1.50;0.40;;;3.00;99.90;;;;;;5076564;28;20476;-83
2024/01/17 11:20:06;;;;;;;1.07;0.43;;;3.10;99.90;;;;;;5077001;28;20468;-83
2024/01/17 11:22:35;;;;;;;0.40;0.40;;;3.10;99.90;;;;;;5076771;28;20429;-83
2024/01/17 11:25:13;;;;;;;0.70;0.70;;;3.10;99.90;;;;;;5076540;28;20445;-83
2024/01/17 11:27:48;;;;;;;0.80;0.70;;;3.10;99.90;;;;;;5077128;28;20421;-83
2024/01/17 11:30:31;;;;;;;0.50;0.50;;;3.10;99.90;;;;;;5076268;28;20830;-82
2024/01/17 11:33:05;;;;;;;0.67;0.30;;;3.20;99.90;;;;;;5076435;28;20443;-82
2024/01/17 11:35:41;;;;;;;0.30;0.30;;;3.30;99.90;;;;;;5076127;28;20425;-82
2024/01/17 11:38:13;;;;;;;1.17;0.93;;;3.40;99.90;;;;;;5076218;28;20440;-82
2024/01/17 11:40:41;;;;;;;0.33;0.33;;;3.50;99.90;;;;;;5075946;28;20410;-82
2024/01/17 11:43:09;;;;;;;0.40;0.30;;;4.70;99.90;;;;;;5076869;28;20490;-82
2024/01/17 11:45:38;;;;;;;0.57;0.57;;;3.70;99.90;;;;;;5075587;28;20456;-82
2024/01/17 11:48:19;;;;;;;0.67;0.67;;;3.80;99.90;;;;;;5075117;28;20449;-82
2024/01/17 11:51:09;;;;;;;0.30;0.30;;;3.90;99.90;;;;;;5075626;28;20429;-82
2024/01/17 11:53:36;;;;;;;2.20;0.93;;;4.00;99.90;;;;;;5077356;28;20459;-82
2024/01/17 11:56:05;;;;;;;1.00;0.50;;;4.00;99.90;;;;;;5079890;28;20461;-82
2024/01/17 11:58:45;;;;;;;0.80;0.50;;;4.00;99.90;;;;;;5079676;28;20461;-84
2024/01/17 12:01:13;;;;;;;0.43;0.33;;;4.10;99.90;;;;;;5081782;28;20440;-84
2024/01/17 12:03:41;;;;;;;0.30;0.30;;;4.20;99.90;;;;;;5080411;28;20452;-84
2024/01/17 12:06:09;;;;;;;0.40;0.30;;;4.20;99.90;;;;;;5080032;28;20979;-83
2024/01/17 12:08:37;;;;;;;0.50;0.40;;;4.30;99.90;;;;;;5079617;28;20491;-84
2024/01/17 12:11:04;;;;;;;2.50;1.40;;;4.40;99.90;;;;;;5081928;28;20475;-84
2024/01/17 12:13:31;;;;;;;0.40;0.30;;;4.40;99.90;;;;;;5079991;28;20820;-84
2024/01/17 12:16:00;;;;;;;0.50;0.47;;;4.30;99.90;;;;;;5079925;28;20495;-84
2024/01/17 12:18:27;;;;;;;0.43;0.40;;;4.40;99.90;;;;;;5080733;28;20495;-84
2024/01/17 12:20:55;;;;;;;0.40;0.40;;;4.40;99.90;;;;;;5082193;28;20531;-84
2024/01/17 12:23:24;;;;;;;1.23;0.90;;;4.40;99.90;;;;;;5083601;28;20449;-84
2024/01/17 12:25:52;;;;;;;0.60;0.50;;;4.30;99.90;;;;;;5082249;28;20455;-84
2024/01/17 12:28:20;;;;;;;0.60;0.40;;;4.30;99.90;;;;;;5081451;28;21043;-84
2024/01/17 12:31:02;;;;;;;0.30;0.30;;;4.30;99.90;;;;;;5081835;28;20448;-84
2024/01/17 12:33:30;;;;;;;0.43;0.43;;;4.40;99.90;;;;;;5082361;28;20429;-84
2024/01/17 12:35:57;;;;;;;1.27;0.60;;;4.50;99.90;;;;;;5081987;28;20510;-83
2024/01/17 12:38:24;;;;;;;0.47;0.43;;;4.50;99.90;;;;;;5082822;28;20521;-83
2024/01/17 12:40:51;;;;;;;0.83;0.57;;;4.60;99.90;;;;;;5083013;28;20445;-83
2024/01/17 12:43:19;;;;;;;1.17;0.50;;;4.70;99.90;;;;;;5083880;28;20429;-83
2024/01/17 12:45:46;;;;;;;0.50;0.40;;;4.80;99.90;;;;;;5083798;28;20810;-82
2024/01/17 12:48:15;;;;;;;1.37;0.43;;;4.90;99.90;;;;;;5083580;28;20547;-82
2024/01/17 12:50:46;;;;;;;0.60;0.60;;;5.10;99.90;;;;;;5083701;28;20519;-82
2024/01/17 12:53:13;;;;;;;1.03;0.50;;;5.00;99.90;;;;;;5083495;28;20847;-82
2024/01/17 12:55:41;;;;;;;0.50;0.40;;;5.00;99.90;;;;;;5082039;28;20462;-82